Terminal Aerodrome Forecast
Issued by NWS

Home | Current Version | Previous Version | Graphics & Text | Print | Product List | Glossary On
Versions: 1 2 3 4 5 6 7 8 9 10 11 12 13 14 15 16
000
FTUS43 KIWX 150526
TAFSBN
TAF
KSBN 150526Z 1506/1606 16012KT 1 1/2SM -SN OVC015
     FM151200 14010KT 3/4SM -SN BR OVC008
     FM152100 22008KT 2SM -SN BR OVC006=

USA.gov is the U.S. government's official web portal to all federal, state and local government web resources and services.